createdAt,value
2022-11-24T00:01:31.537Z,1.88
2022-11-24T00:04:06.392Z,1.96
2022-11-24T00:06:36.042Z,1.95
2022-11-24T00:09:05.222Z,2.07
2022-11-24T00:11:35.567Z,1.83
2022-11-24T00:14:04.846Z,1.72
2022-11-24T00:16:36.425Z,1.68
2022-11-24T00:19:15.770Z,1.87
2022-11-24T00:21:45.707Z,2.11
2022-11-24T00:24:13.223Z,2.08
2022-11-24T00:26:40.202Z,1.99
2022-11-24T00:29:12.301Z,2.02
2022-11-24T00:31:43.106Z,2.21
2022-11-24T00:34:15.103Z,2.07
2022-11-24T00:36:42.683Z,2.07
2022-11-24T00:39:15.304Z,2.04
2022-11-24T00:41:43.293Z,2.06
2022-11-24T00:44:10.816Z,2.05
2022-11-24T00:46:38.546Z,2.06
2022-11-24T00:49:06.650Z,2.19
2022-11-24T00:51:34.310Z,2.09
2022-11-24T00:54:02.392Z,2.09
2022-11-24T00:56:30.422Z,2.03
2022-11-24T00:58:57.924Z,2.09
2022-11-24T01:01:28.545Z,2.10
2022-11-24T01:03:56.806Z,2.10
2022-11-24T01:06:26.786Z,2.07
2022-11-24T01:08:54.734Z,2.05
2022-11-24T01:11:50.805Z,1.99
2022-11-24T01:14:18.618Z,2.12
2022-11-24T01:16:45.623Z,2.30
2022-11-24T01:19:14.200Z,2.32
2022-11-24T01:21:41.562Z,2.25
2022-11-24T01:24:10.044Z,2.24
2022-11-24T01:26:37.181Z,2.34
2022-11-24T01:29:05.670Z,2.43
2022-11-24T01:31:33.192Z,2.38
2022-11-24T01:34:00.413Z,2.27
2022-11-24T01:36:27.842Z,2.27
2022-11-24T01:38:55.350Z,2.25
2022-11-24T01:41:25.528Z,2.28
2022-11-24T01:43:54.902Z,2.30
2022-11-24T01:46:45.164Z,2.30
2022-11-24T01:49:18.442Z,2.24
2022-11-24T01:51:52.782Z,2.16
2022-11-24T01:54:33.777Z,2.21
2022-11-24T01:57:20.362Z,2.33
2022-11-24T01:59:52.361Z,2.16
2022-11-24T02:02:21.807Z,2.05
2022-11-24T02:04:51.663Z,1.93
2022-11-24T02:07:19.358Z,2.01
2022-11-24T02:09:53.266Z,2.12
2022-11-24T02:12:23.044Z,2.25
2022-11-24T02:14:52.462Z,2.26
2022-11-24T02:17:19.982Z,2.11
2022-11-24T02:19:56.640Z,2.00
2022-11-24T02:22:32.537Z,1.85
2022-11-24T02:25:17.138Z,1.88
2022-11-24T02:27:49.474Z,1.86
2022-11-24T02:30:20.797Z,1.71
2022-11-24T02:32:48.365Z,1.65
2022-11-24T02:35:15.777Z,1.61
2022-11-24T02:37:49.768Z,1.90
2022-11-24T02:40:23.370Z,2.02
2022-11-24T02:42:54.411Z,1.82
2022-11-24T02:45:22.309Z,2.00
2022-11-24T02:47:49.748Z,1.83
2022-11-24T02:50:18.263Z,1.99
2022-11-24T02:52:45.607Z,2.07
2022-11-24T02:55:12.564Z,1.80
2022-11-24T02:57:39.556Z,1.64
2022-11-24T03:00:07.545Z,1.52
2022-11-24T03:02:35.072Z,1.39
2022-11-24T03:05:02.463Z,1.45
2022-11-24T03:07:29.918Z,1.58
2022-11-24T03:09:56.959Z,1.56
2022-11-24T03:12:24.337Z,1.60
2022-11-24T03:14:52.099Z,1.79
2022-11-24T03:17:19.239Z,1.86
2022-11-24T03:19:47.226Z,1.62
2022-11-24T03:22:15.783Z,1.43
2022-11-24T03:24:43.205Z,1.30
2022-11-24T03:27:10.194Z,1.22
2022-11-24T03:29:37.550Z,1.30
2022-11-24T03:32:05.312Z,1.47
2022-11-24T03:34:40.603Z,1.66
2022-11-24T03:37:07.866Z,1.75
2022-11-24T03:39:35.020Z,1.77
2022-11-24T03:42:01.978Z,1.76
2022-11-24T03:44:29.471Z,1.69
2022-11-24T03:46:56.919Z,1.58
2022-11-24T03:49:24.404Z,1.62
2022-11-24T03:51:51.832Z,1.62
2022-11-24T03:54:19.345Z,1.50
2022-11-24T03:56:46.748Z,1.45
2022-11-24T03:59:14.169Z,1.38
2022-11-24T04:01:41.700Z,1.41
2022-11-24T04:04:11.493Z,1.46
2022-11-24T04:06:39.336Z,1.50
2022-11-24T04:09:06.930Z,1.69
2022-11-24T04:11:54.801Z,1.62
2022-11-24T04:14:23.982Z,1.69
2022-11-24T04:16:52.045Z,1.75
2022-11-24T04:19:19.528Z,1.86
2022-11-24T04:21:46.882Z,1.87
2022-11-24T04:24:15.054Z,1.89
2022-11-24T04:26:41.963Z,1.99
2022-11-24T04:29:10.243Z,2.10
2022-11-24T04:31:38.857Z,2.05
2022-11-24T04:34:06.212Z,1.89
2022-11-24T04:36:33.603Z,1.77
2022-11-24T04:39:25.934Z,1.86
2022-11-24T04:41:48.472Z,1.90
2022-11-24T04:44:15.520Z,1.81
2022-11-24T04:46:43.036Z,1.88
2022-11-24T04:49:12.045Z,1.94
2022-11-24T04:51:40.202Z,1.87
2022-11-24T04:54:11.925Z,1.89
2022-11-24T04:56:39.568Z,1.70
2022-11-24T04:59:08.578Z,1.61
2022-11-24T05:01:36.151Z,1.65
2022-11-24T05:04:04.240Z,1.73
2022-11-24T05:06:33.423Z,1.90
2022-11-24T05:09:01.348Z,1.99
2022-11-24T05:11:28.503Z,1.95
2022-11-24T05:14:02.224Z,1.88
2022-11-24T05:16:36.385Z,1.87
2022-11-24T05:19:03.807Z,1.91
2022-11-24T05:21:32.267Z,1.85
2022-11-24T05:24:00.524Z,1.80
2022-11-24T05:26:28.250Z,1.90
2022-11-24T05:28:55.370Z,1.94
2022-11-24T05:31:22.361Z,1.95
2022-11-24T05:33:50.843Z,1.95
2022-11-24T05:36:36.977Z,2.02
2022-11-24T05:39:06.213Z,2.12
2022-11-24T05:41:33.632Z,1.89
2022-11-24T05:44:01.728Z,1.63
2022-11-24T05:46:28.644Z,1.61
2022-11-24T05:48:56.033Z,1.54
2022-11-24T05:51:23.090Z,1.42
2022-11-24T05:53:50.463Z,1.34
2022-11-24T05:56:17.885Z,1.41
2022-11-24T05:58:50.963Z,1.41
2022-11-24T06:01:18.960Z,1.33
2022-11-24T06:03:46.462Z,1.27
2022-11-24T06:06:14.314Z,1.25
2022-11-24T06:08:41.426Z,1.26
2022-11-24T06:11:18.735Z,1.34
2022-11-24T06:13:47.322Z,1.36
2022-11-24T06:16:15.589Z,1.34
2022-11-24T06:18:43.037Z,1.33
2022-11-24T06:21:11.834Z,1.29
2022-11-24T06:23:40.172Z,1.22
2022-11-24T06:26:07.251Z,1.21
2022-11-24T06:28:35.789Z,1.08
2022-11-24T06:31:04.003Z,1.09
2022-11-24T06:33:36.125Z,1.07
2022-11-24T06:36:07.734Z,1.11
2022-11-24T06:38:37.002Z,1.18
2022-11-24T06:41:10.285Z,1.19
2022-11-24T06:43:37.763Z,1.05
2022-11-24T06:46:05.165Z,1.06
2022-11-24T06:48:32.848Z,1.07
2022-11-24T06:51:02.071Z,1.17
2022-11-24T06:53:41.632Z,1.36
2022-11-24T06:56:16.158Z,1.62
2022-11-24T06:58:47.615Z,1.61
2022-11-24T07:01:23.209Z,1.62
2022-11-24T07:03:51.890Z,1.70
2022-11-24T07:06:20.070Z,1.82
2022-11-24T07:08:47.813Z,1.81
2022-11-24T07:11:19.609Z,1.92
2022-11-24T07:14:00.881Z,2.04
2022-11-24T07:16:28.857Z,2.10
2022-11-24T07:18:57.106Z,2.14
2022-11-24T07:21:25.253Z,2.22
2022-11-24T07:23:54.644Z,1.98
2022-11-24T07:26:22.570Z,2.13
2022-11-24T07:28:50.054Z,2.13
2022-11-24T07:31:21.601Z,1.96
2022-11-24T07:33:55.970Z,1.85
2022-11-24T07:36:25.851Z,2.03
2022-11-24T07:38:55.338Z,1.96
2022-11-24T07:41:22.791Z,1.94
2022-11-24T07:43:50.915Z,1.91
2022-11-24T07:46:19.753Z,1.99
2022-11-24T07:48:47.605Z,2.12
2022-11-24T07:51:16.323Z,2.13
2022-11-24T07:53:44.445Z,2.04
2022-11-24T07:56:12.982Z,2.13
2022-11-24T07:58:40.091Z,2.18
2022-11-24T08:01:15.896Z,2.06
2022-11-24T08:03:43.682Z,2.14
2022-11-24T08:06:31.879Z,2.18
2022-11-24T08:09:04.850Z,2.17
2022-11-24T08:11:33.223Z,2.10
2022-11-24T08:14:01.321Z,2.18
2022-11-24T08:16:30.431Z,2.28
2022-11-24T08:18:57.717Z,2.38
2022-11-24T08:21:25.043Z,2.41
2022-11-24T08:23:56.646Z,2.46
2022-11-24T08:26:25.378Z,2.41
2022-11-24T08:28:58.973Z,2.45
2022-11-24T08:31:27.570Z,2.49
2022-11-24T08:33:56.637Z,2.52
2022-11-24T08:36:23.825Z,2.56
2022-11-24T08:38:58.044Z,2.56
2022-11-24T08:41:27.487Z,2.57
2022-11-24T08:43:56.009Z,2.54
2022-11-24T08:46:23.999Z,2.61
2022-11-24T08:48:54.176Z,2.64
2022-11-24T08:51:24.064Z,2.68
2022-11-24T08:53:55.936Z,2.77
2022-11-24T08:56:23.402Z,2.85
2022-11-24T08:58:51.206Z,2.72
2022-11-24T09:01:19.518Z,2.81
2022-11-24T09:03:50.977Z,2.80
2022-11-24T09:06:23.923Z,2.88
2022-11-24T09:08:55.878Z,2.86
2022-11-24T09:11:25.264Z,2.89
2022-11-24T09:13:53.735Z,2.93
2022-11-24T09:16:26.187Z,2.98
2022-11-24T09:19:05.170Z,3.05
2022-11-24T09:21:36.413Z,3.06
2022-11-24T09:24:03.849Z,3.04
2022-11-24T09:26:33.929Z,3.08
2022-11-24T09:29:02.994Z,3.12
2022-11-24T09:31:34.493Z,3.11
2022-11-24T09:34:09.598Z,3.18
2022-11-24T09:36:37.192Z,3.16
2022-11-24T09:39:04.382Z,3.18
2022-11-24T09:41:50.643Z,3.12
2022-11-24T09:44:41.048Z,3.10
2022-11-24T09:47:29.485Z,3.10
2022-11-24T09:50:06.245Z,3.15
2022-11-24T09:52:43.716Z,3.20
2022-11-24T09:55:40.843Z,3.23
2022-11-24T09:58:24.952Z,3.23
2022-11-24T10:00:54.168Z,3.21
2022-11-24T10:03:29.825Z,3.27
2022-11-24T10:05:56.898Z,3.25
2022-11-24T10:09:04.483Z,3.30
2022-11-24T10:11:56.925Z,3.44
2022-11-24T10:14:35.053Z,3.40
2022-11-24T10:17:34.201Z,3.44
2022-11-24T10:20:05.389Z,3.35
2022-11-24T10:23:03.101Z,3.18
2022-11-24T10:25:51.947Z,2.98
2022-11-24T10:28:19.442Z,3.15
2022-11-24T10:30:47.587Z,3.01
2022-11-24T10:33:28.727Z,3.13
2022-11-24T10:36:11.253Z,3.29
2022-11-24T10:38:50.994Z,3.40
2022-11-24T10:41:25.328Z,3.41
2022-11-24T10:43:52.879Z,3.43
2022-11-24T10:46:29.549Z,3.34
2022-11-24T10:49:05.964Z,3.28
2022-11-24T10:51:35.739Z,3.03
2022-11-24T10:54:15.492Z,3.35
2022-11-24T10:56:43.895Z,3.33
2022-11-24T10:59:39.679Z,3.45
2022-11-24T11:02:29.217Z,3.45
2022-11-24T11:04:56.532Z,3.54
2022-11-24T11:07:26.752Z,3.69
2022-11-24T11:10:32.364Z,3.81
2022-11-24T11:12:59.462Z,3.75
2022-11-24T11:15:31.828Z,3.76
2022-11-24T11:18:01.418Z,3.83
2022-11-24T11:20:32.223Z,3.83
2022-11-24T11:23:03.814Z,3.86
2022-11-24T11:25:35.877Z,3.83
2022-11-24T11:28:32.127Z,3.91
2022-11-24T11:31:20.309Z,3.84
2022-11-24T11:34:26.617Z,3.72
2022-11-24T11:36:57.937Z,3.62
2022-11-24T11:39:46.955Z,3.61
2022-11-24T11:43:00.711Z,3.99
2022-11-24T11:45:23.152Z,4.00
2022-11-24T11:48:16.831Z,4.05
2022-11-24T11:51:22.417Z,3.75
2022-11-24T11:53:53.316Z,3.54
2022-11-24T11:56:44.582Z,3.91
2022-11-24T11:59:30.286Z,4.03
2022-11-24T12:02:18.865Z,4.03
2022-11-24T12:05:04.299Z,4.07
2022-11-24T12:08:09.257Z,4.13
2022-11-24T12:10:47.935Z,4.06
2022-11-24T12:13:53.331Z,4.08
2022-11-24T12:16:28.022Z,4.11
2022-11-24T12:19:12.853Z,4.13
2022-11-24T12:22:06.250Z,4.00
2022-11-24T12:24:36.667Z,4.07
2022-11-24T12:27:37.964Z,4.14
2022-11-24T12:30:18.975Z,4.05
2022-11-24T12:32:57.866Z,4.19
2022-11-24T12:35:37.856Z,4.31
2022-11-24T12:38:30.834Z,4.43
2022-11-24T12:44:19.322Z,4.65
2022-11-24T12:47:27.884Z,4.76
2022-11-24T12:50:10.774Z,4.73
2022-11-24T12:53:14.390Z,4.67
2022-11-24T12:55:43.235Z,4.68
2022-11-24T12:58:25.613Z,4.73
2022-11-24T13:01:02.684Z,4.79
2022-11-24T13:03:50.835Z,4.68
2022-11-24T13:06:29.835Z,4.42
2022-11-24T13:08:59.611Z,4.53
2022-11-24T13:11:39.012Z,4.49
2022-11-24T13:14:29.502Z,4.51
2022-11-24T13:19:51.916Z,4.59
2022-11-24T13:22:26.012Z,4.59
2022-11-24T13:25:29.070Z,4.50
2022-11-24T13:27:59.911Z,4.50
2022-11-24T13:30:34.895Z,4.53
2022-11-24T13:33:16.952Z,4.43
2022-11-24T13:36:11.387Z,4.36
2022-11-24T13:38:54.580Z,4.38
2022-11-24T13:41:33.914Z,4.44
2022-11-24T13:44:16.267Z,4.46
2022-11-24T13:47:05.115Z,4.44
2022-11-24T13:49:46.770Z,4.52
2022-11-24T13:52:45.141Z,4.42
2022-11-24T13:55:12.525Z,4.50
2022-11-24T13:57:54.561Z,4.45
2022-11-24T14:00:25.899Z,4.44
2022-11-24T14:02:58.056Z,4.37
2022-11-24T14:05:36.990Z,4.29
2022-11-24T14:08:07.285Z,4.25
2022-11-24T14:10:38.120Z,4.23
2022-11-24T14:13:21.777Z,4.18
2022-11-24T14:16:02.056Z,4.06
2022-11-24T14:18:31.723Z,4.03
2022-11-24T14:21:01.687Z,4.06
2022-11-24T14:23:31.843Z,4.06
2022-11-24T14:26:00.032Z,4.00
2022-11-24T14:28:29.642Z,3.95
2022-11-24T14:31:20.253Z,4.02
2022-11-24T14:33:48.607Z,3.93
2022-11-24T14:36:17.059Z,3.80
2022-11-24T14:38:44.854Z,3.81
2022-11-24T14:41:28.553Z,3.90
2022-11-24T14:44:19.530Z,3.96
2022-11-24T14:46:47.758Z,3.79
2022-11-24T14:49:23.714Z,3.68
2022-11-24T14:52:02.926Z,3.67
2022-11-24T14:54:31.155Z,3.56
2022-11-24T14:57:06.644Z,3.54
2022-11-24T14:59:39.749Z,3.51
2022-11-24T15:02:42.326Z,3.53
2022-11-24T15:05:11.776Z,3.70
2022-11-24T15:07:47.096Z,3.68
2022-11-24T15:10:33.416Z,3.73
2022-11-24T15:13:21.782Z,3.71
2022-11-24T15:16:02.389Z,3.73
2022-11-24T15:18:44.049Z,3.71
2022-11-24T15:21:18.943Z,3.76
2022-11-24T15:24:06.435Z,3.80
2022-11-24T15:26:40.043Z,3.58
2022-11-24T15:29:09.173Z,3.53
2022-11-24T15:31:36.828Z,3.37
2022-11-24T15:34:04.436Z,3.06
2022-11-24T15:36:33.476Z,3.30
2022-11-24T15:39:01.811Z,2.99
2022-11-24T15:41:31.924Z,2.82
2022-11-24T15:43:59.663Z,2.88
2022-11-24T15:46:29.473Z,2.92
2022-11-24T15:48:57.724Z,2.99
2022-11-24T15:51:26.579Z,2.75
2022-11-24T15:54:00.345Z,2.81
2022-11-24T15:56:34.778Z,2.59
2022-11-24T15:59:18.520Z,2.68
2022-11-24T16:01:49.994Z,2.89
2022-11-24T16:04:17.596Z,2.80
2022-11-24T16:06:44.847Z,2.55
2022-11-24T16:09:16.497Z,2.56
2022-11-24T16:11:43.718Z,2.49
2022-11-24T16:14:11.371Z,2.55
2022-11-24T16:16:41.829Z,2.61
2022-11-24T16:19:11.301Z,2.67
2022-11-24T16:21:38.704Z,2.69
2022-11-24T16:24:06.288Z,2.78
2022-11-24T16:26:33.232Z,2.72
2022-11-24T16:29:00.711Z,2.80
2022-11-24T16:31:29.190Z,2.90
2022-11-24T16:33:57.680Z,3.04
2022-11-24T16:36:25.406Z,2.98
2022-11-24T16:38:55.350Z,2.99
2022-11-24T16:41:22.598Z,3.03
2022-11-24T16:43:50.207Z,2.78
2022-11-24T16:46:23.615Z,2.62
2022-11-24T16:48:52.931Z,2.64
2022-11-24T16:51:24.517Z,2.50
2022-11-24T16:54:02.801Z,2.50
2022-11-24T16:56:31.520Z,2.47
2022-11-24T16:58:59.106Z,2.45
2022-11-24T17:01:28.083Z,2.39
2022-11-24T17:03:55.380Z,2.49
2022-11-24T17:06:22.776Z,2.45
2022-11-24T17:08:50.024Z,2.42
2022-11-24T17:11:23.989Z,2.56
2022-11-24T17:13:53.810Z,2.59
2022-11-24T17:16:23.519Z,2.60
2022-11-24T17:18:58.932Z,2.61
2022-11-24T17:21:28.527Z,2.65
2022-11-24T17:23:57.928Z,2.64
2022-11-24T17:26:26.000Z,2.66
2022-11-24T17:28:56.178Z,2.71
2022-11-24T17:31:31.529Z,2.63
2022-11-24T17:34:00.965Z,2.60
2022-11-24T17:36:31.279Z,2.57
2022-11-24T17:39:04.876Z,2.57
2022-11-24T17:41:32.610Z,2.53
2022-11-24T17:44:01.045Z,2.50
2022-11-24T17:46:31.357Z,2.53
2022-11-24T17:48:58.862Z,2.85
2022-11-24T17:51:28.070Z,2.85
2022-11-24T17:53:57.771Z,2.71
2022-11-24T17:56:27.884Z,2.59
2022-11-24T17:58:58.504Z,2.53
2022-11-24T18:01:29.031Z,2.56
2022-11-24T18:03:57.120Z,2.67
2022-11-24T18:06:29.385Z,2.33
2022-11-24T18:08:58.110Z,2.49
2022-11-24T18:11:31.469Z,2.27
2022-11-24T18:14:03.201Z,2.21
2022-11-24T18:16:33.556Z,2.14
2022-11-24T18:19:09.389Z,2.02
2022-11-24T18:21:39.115Z,2.04
2022-11-24T18:24:13.633Z,1.97
2022-11-24T18:26:42.860Z,2.06
2022-11-24T18:29:11.853Z,2.15
2022-11-24T18:31:40.707Z,1.99
2022-11-24T18:34:09.545Z,2.06
2022-11-24T18:36:37.525Z,2.12
2022-11-24T18:39:07.786Z,2.21
2022-11-24T18:41:36.226Z,2.23
2022-11-24T18:44:08.425Z,2.25
2022-11-24T18:46:37.200Z,2.35
2022-11-24T18:49:05.529Z,2.03
2022-11-24T18:51:39.726Z,2.24
2022-11-24T18:54:08.645Z,2.10
2022-11-24T18:56:36.505Z,2.06
2022-11-24T18:59:07.737Z,2.06
2022-11-24T19:01:35.772Z,2.04
2022-11-24T19:04:04.131Z,2.08
2022-11-24T19:06:37.706Z,2.34
2022-11-24T19:09:19.271Z,2.33
2022-11-24T19:11:50.698Z,2.10
2022-11-24T19:14:19.849Z,2.05
2022-11-24T19:16:53.942Z,2.07
2022-11-24T19:19:21.711Z,2.08
2022-11-24T19:21:54.684Z,2.09
2022-11-24T19:24:25.546Z,2.33
2022-11-24T19:26:53.128Z,2.40
2022-11-24T19:29:21.806Z,2.35
2022-11-24T19:31:50.838Z,2.36
2022-11-24T19:34:18.643Z,2.36
2022-11-24T19:36:47.639Z,2.51
2022-11-24T19:39:18.066Z,2.56
2022-11-24T19:41:45.603Z,2.46
2022-11-24T19:44:13.751Z,2.50
2022-11-24T19:46:42.317Z,2.55
2022-11-24T19:49:10.298Z,2.18
2022-11-24T19:51:41.685Z,1.96
2022-11-24T19:54:17.255Z,2.09
2022-11-24T19:56:45.251Z,1.95
2022-11-24T19:59:14.821Z,2.20
2022-11-24T20:01:49.858Z,2.29
2022-11-24T20:04:17.844Z,1.92
2022-11-24T20:06:48.067Z,2.20
2022-11-24T20:09:19.686Z,2.16
2022-11-24T20:11:49.261Z,2.05
2022-11-24T20:14:19.631Z,1.71
2022-11-24T20:16:49.081Z,1.59
2022-11-24T20:19:18.686Z,1.51
2022-11-24T20:21:48.564Z,1.60
2022-11-24T20:24:25.668Z,1.59
2022-11-24T20:26:57.073Z,1.58
2022-11-24T20:29:25.225Z,1.71
2022-11-24T20:31:55.564Z,1.86
2022-11-24T20:34:24.218Z,1.88
2022-11-24T20:36:53.707Z,1.85
2022-11-24T20:39:28.989Z,1.95
2022-11-24T20:41:57.517Z,2.02
2022-11-24T20:44:27.374Z,2.11
2022-11-24T20:46:57.509Z,1.96
2022-11-24T20:49:25.774Z,1.93
2022-11-24T20:51:57.885Z,1.95
2022-11-24T20:54:26.936Z,1.93
2022-11-24T20:57:05.769Z,1.99
2022-11-24T20:59:34.602Z,2.00
2022-11-24T21:02:03.445Z,2.03
2022-11-24T21:04:38.586Z,2.04
2022-11-24T21:07:05.871Z,2.04
2022-11-24T21:09:33.540Z,2.07
2022-11-24T21:12:03.223Z,2.10
2022-11-24T21:14:35.084Z,2.20
2022-11-24T21:17:15.557Z,2.40
2022-11-24T21:19:43.454Z,2.50
2022-11-24T21:22:11.766Z,2.47
2022-11-24T21:24:38.878Z,2.39
2022-11-24T21:27:05.818Z,2.44
2022-11-24T21:29:33.307Z,2.40
2022-11-24T21:32:00.896Z,2.21
2022-11-24T21:34:29.581Z,2.12
2022-11-24T21:36:57.650Z,1.89
2022-11-24T21:39:33.237Z,1.78
2022-11-24T21:42:00.231Z,1.91
2022-11-24T21:44:29.841Z,1.79
2022-11-24T21:46:57.195Z,1.78
2022-11-24T21:49:25.846Z,1.80
2022-11-24T21:51:56.139Z,1.94
2022-11-24T21:54:24.248Z,1.92
2022-11-24T21:56:54.221Z,1.94
2022-11-24T21:59:22.746Z,2.10
2022-11-24T22:01:51.334Z,2.22
2022-11-24T22:04:20.759Z,2.08
2022-11-24T22:06:48.161Z,2.29
2022-11-24T22:09:18.188Z,2.16
2022-11-24T22:11:52.316Z,2.27
2022-11-24T22:14:19.944Z,2.31
2022-11-24T22:16:53.538Z,2.29
2022-11-24T22:19:20.836Z,2.36
2022-11-24T22:21:48.451Z,2.41
2022-11-24T22:24:15.741Z,2.46
2022-11-24T22:26:42.645Z,2.32
2022-11-24T22:29:11.995Z,2.48
2022-11-24T22:31:41.265Z,2.38
2022-11-24T22:34:09.574Z,2.28
2022-11-24T22:36:36.948Z,2.30
2022-11-24T22:39:05.917Z,2.31
2022-11-24T22:41:35.255Z,2.37
2022-11-24T22:44:02.548Z,2.33
2022-11-24T22:46:31.264Z,2.17
2022-11-24T22:49:01.341Z,2.28
2022-11-24T22:51:31.737Z,2.28
2022-11-24T22:54:02.822Z,2.32
2022-11-24T22:56:33.595Z,2.43
2022-11-24T22:59:03.296Z,2.38
2022-11-24T23:01:33.913Z,2.40
2022-11-24T23:04:01.434Z,2.36
2022-11-24T23:06:30.945Z,2.34
2022-11-24T23:09:01.643Z,2.36
2022-11-24T23:11:44.017Z,2.38
2022-11-24T23:14:15.754Z,2.45
2022-11-24T23:16:43.433Z,2.56
2022-11-24T23:19:11.061Z,2.50
2022-11-24T23:21:39.423Z,2.60
2022-11-24T23:24:09.057Z,2.66
2022-11-24T23:26:38.583Z,2.65
2022-11-24T23:29:06.875Z,2.76
2022-11-24T23:31:40.416Z,2.81
2022-11-24T23:34:08.549Z,2.76
2022-11-24T23:36:35.895Z,2.76
2022-11-24T23:39:08.790Z,2.89
2022-11-24T23:41:36.027Z,2.82
2022-11-24T23:44:04.295Z,3.00
2022-11-24T23:46:31.564Z,2.97
2022-11-24T23:49:07.544Z,2.83
2022-11-24T23:51:34.510Z,2.79
2022-11-24T23:56:46.252Z,3.11
2022-11-24T23:59:14.329Z,2.91
